sensor_id;sensor_type;location;lat;lon;timestamp;pressure;altitude;pressure_sealevel;temperature;humidity
10079;BME280;5078;42.544;22.966;2024-02-23T00:00:06;93767.50;;;7.01;65.36
10079;BME280;5078;42.544;22.966;2024-02-23T00:02:36;93769.56;;;7.04;65.70
10079;BME280;5078;42.544;22.966;2024-02-23T00:05:04;93774.72;;;7.04;65.73
10079;BME280;5078;42.544;22.966;2024-02-23T00:07:30;93764.91;;;6.96;66.16
10079;BME280;5078;42.544;22.966;2024-02-23T00:09:57;93743.25;;;6.87;66.18
10079;BME280;5078;42.544;22.966;2024-02-23T00:12:24;93760.53;;;7.07;66.93
10079;BME280;5078;42.544;22.966;2024-02-23T00:14:52;93751.53;;;7.14;66.04
10079;BME280;5078;42.544;22.966;2024-02-23T00:17:18;93750.50;;;7.20;66.05
10079;BME280;5078;42.544;22.966;2024-02-23T00:19:45;93754.91;;;7.35;65.60
10079;BME280;5078;42.544;22.966;2024-02-23T00:22:12;93742.25;;;7.33;66.16
10079;BME280;5078;42.544;22.966;2024-02-23T00:24:39;93744.06;;;7.23;65.57
10079;BME280;5078;42.544;22.966;2024-02-23T00:27:06;93742.50;;;7.02;66.60
10079;BME280;5078;42.544;22.966;2024-02-23T00:29:33;93747.16;;;7.20;66.38
10079;BME280;5078;42.544;22.966;2024-02-23T00:32:02;93743.25;;;7.07;67.42
10079;BME280;5078;42.544;22.966;2024-02-23T00:34:28;93745.59;;;7.19;66.74
10079;BME280;5078;42.544;22.966;2024-02-23T00:36:57;93744.81;;;7.28;66.93
10079;BME280;5078;42.544;22.966;2024-02-23T00:39:23;93733.50;;;7.34;66.67
10079;BME280;5078;42.544;22.966;2024-02-23T00:41:50;93740.16;;;7.35;66.71
10079;BME280;5078;42.544;22.966;2024-02-23T00:44:17;93738.38;;;7.26;67.45
10079;BME280;5078;42.544;22.966;2024-02-23T00:46:43;93740.44;;;7.24;67.82
10079;BME280;5078;42.544;22.966;2024-02-23T00:49:11;93721.59;;;7.13;68.82
10079;BME280;5078;42.544;22.966;2024-02-23T00:51:38;93730.63;;;7.21;68.69
10079;BME280;5078;42.544;22.966;2024-02-23T00:54:05;93736.06;;;7.19;68.56
10079;BME280;5078;42.544;22.966;2024-02-23T00:56:33;93718.00;;;7.14;68.51
10079;BME280;5078;42.544;22.966;2024-02-23T00:59:00;93728.06;;;7.31;68.79
10079;BME280;5078;42.544;22.966;2024-02-23T01:01:26;93720.34;;;7.26;69.51
10079;BME280;5078;42.544;22.966;2024-02-23T01:03:54;93725.75;;;7.29;69.64
10079;BME280;5078;42.544;22.966;2024-02-23T01:06:22;93719.56;;;7.25;69.33
10079;BME280;5078;42.544;22.966;2024-02-23T01:08:50;93731.16;;;7.13;69.97
10079;BME280;5078;42.544;22.966;2024-02-23T01:11:17;93725.47;;;7.21;69.58
10079;BME280;5078;42.544;22.966;2024-02-23T01:13:44;93719.81;;;7.19;69.19
10079;BME280;5078;42.544;22.966;2024-02-23T01:16:11;93725.25;;;7.27;68.96
10079;BME280;5078;42.544;22.966;2024-02-23T01:18:37;93709.25;;;7.25;69.79
10079;BME280;5078;42.544;22.966;2024-02-23T01:21:04;93715.44;;;7.19;69.62
10079;BME280;5078;42.544;22.966;2024-02-23T01:23:32;93704.34;;;7.14;70.16
10079;BME280;5078;42.544;22.966;2024-02-23T01:25:59;93725.22;;;7.17;70.01
10079;BME280;5078;42.544;22.966;2024-02-23T01:28:26;93709.25;;;7.10;71.20
10079;BME280;5078;42.544;22.966;2024-02-23T01:30:53;93705.91;;;7.15;71.38
10079;BME280;5078;42.544;22.966;2024-02-23T01:33:19;93703.56;;;7.13;70.66
10079;BME280;5078;42.544;22.966;2024-02-23T01:35:46;93699.19;;;6.89;71.80
10079;BME280;5078;42.544;22.966;2024-02-23T01:38:13;93695.31;;;6.91;72.14
10079;BME280;5078;42.544;22.966;2024-02-23T01:40:45;93688.13;;;6.93;72.17
10079;BME280;5078;42.544;22.966;2024-02-23T01:43:12;93696.88;;;6.82;72.59
10079;BME280;5078;42.544;22.966;2024-02-23T01:45:39;93691.97;;;6.96;71.93
10079;BME280;5078;42.544;22.966;2024-02-23T01:48:06;93682.69;;;7.00;72.64
10079;BME280;5078;42.544;22.966;2024-02-23T01:50:34;93686.31;;;6.89;72.36
10079;BME280;5078;42.544;22.966;2024-02-23T01:53:02;93685.53;;;6.88;72.94
10079;BME280;5078;42.544;22.966;2024-02-23T01:55:29;93680.13;;;6.90;72.71
10079;BME280;5078;42.544;22.966;2024-02-23T01:57:59;93660.28;;;6.85;72.28
10079;BME280;5078;42.544;22.966;2024-02-23T02:00:27;93670.59;;;7.05;72.21
10079;BME280;5078;42.544;22.966;2024-02-23T02:02:53;93666.72;;;7.03;72.56
10079;BME280;5078;42.544;22.966;2024-02-23T02:05:20;93664.66;;;7.05;71.83
10079;BME280;5078;42.544;22.966;2024-02-23T02:07:49;93672.13;;;6.81;73.37
10079;BME280;5078;42.544;22.966;2024-02-23T02:10:20;93673.94;;;6.91;72.86
10079;BME280;5078;42.544;22.966;2024-02-23T02:12:47;93670.31;;;6.92;72.21
10079;BME280;5078;42.544;22.966;2024-02-23T02:15:15;93667.00;;;7.01;72.50
10079;BME280;5078;42.544;22.966;2024-02-23T02:17:41;93659.50;;;7.10;71.99
10079;BME280;5078;42.544;22.966;2024-02-23T02:20:12;93653.31;;;7.01;71.71
10079;BME280;5078;42.544;22.966;2024-02-23T02:22:40;93670.31;;;7.07;71.84
10079;BME280;5078;42.544;22.966;2024-02-23T02:25:07;93661.31;;;7.14;71.76
10079;BME280;5078;42.544;22.966;2024-02-23T02:27:34;93655.88;;;7.11;71.50
10079;BME280;5078;42.544;22.966;2024-02-23T02:30:01;93663.09;;;6.89;72.85
10079;BME280;5078;42.544;22.966;2024-02-23T02:32:29;93654.88;;;6.87;72.78
10079;BME280;5078;42.544;22.966;2024-02-23T02:34:56;93663.88;;;6.99;72.66
10079;BME280;5078;42.544;22.966;2024-02-23T02:37:22;93665.44;;;7.00;71.71
10079;BME280;5078;42.544;22.966;2024-02-23T02:39:49;93666.47;;;7.09;71.73
10079;BME280;5078;42.544;22.966;2024-02-23T02:42:16;93659.25;;;7.01;71.06
10079;BME280;5078;42.544;22.966;2024-02-23T02:44:42;93657.19;;;6.98;71.10
10079;BME280;5078;42.544;22.966;2024-02-23T02:47:09;93663.38;;;6.92;71.48
10079;BME280;5078;42.544;22.966;2024-02-23T02:49:39;93658.22;;;6.97;71.27
10079;BME280;5078;42.544;22.966;2024-02-23T02:52:06;93659.22;;;6.91;71.52
10079;BME280;5078;42.544;22.966;2024-02-23T02:54:33;93657.44;;;6.92;71.69
10079;BME280;5078;42.544;22.966;2024-02-23T02:57:00;93670.06;;;6.88;71.76
10079;BME280;5078;42.544;22.966;2024-02-23T02:59:27;93661.81;;;6.81;71.96
10079;BME280;5078;42.544;22.966;2024-02-23T03:01:53;93659.00;;;6.82;71.62
10079;BME280;5078;42.544;22.966;2024-02-23T03:04:20;93658.22;;;6.87;72.59
10079;BME280;5078;42.544;22.966;2024-02-23T03:06:48;93670.34;;;6.97;71.33
10079;BME280;5078;42.544;22.966;2024-02-23T03:09:15;93664.41;;;6.76;72.58
10079;BME280;5078;42.544;22.966;2024-02-23T03:11:41;93665.44;;;6.90;71.50
10079;BME280;5078;42.544;22.966;2024-02-23T03:14:08;93667.50;;;6.98;71.20
10079;BME280;5078;42.544;22.966;2024-02-23T03:16:35;93668.03;;;7.05;70.92
10079;BME280;5078;42.544;22.966;2024-02-23T03:19:02;93652.03;;;6.93;70.88
10079;BME280;5078;42.544;22.966;2024-02-23T03:21:30;93667.00;;;7.01;71.50
10079;BME280;5078;42.544;22.966;2024-02-23T03:23:58;93670.34;;;6.97;70.82
10079;BME280;5078;42.544;22.966;2024-02-23T03:26:25;93666.22;;;7.01;71.44
10079;BME280;5078;42.544;22.966;2024-02-23T03:28:52;93666.47;;;7.04;70.68
10079;BME280;5078;42.544;22.966;2024-02-23T03:31:18;93669.03;;;7.04;70.66
10079;BME280;5078;42.544;22.966;2024-02-23T03:33:45;93671.09;;;7.07;70.40
10079;BME280;5078;42.544;22.966;2024-02-23T03:36:12;93663.63;;;6.96;70.99
10079;BME280;5078;42.544;22.966;2024-02-23T03:38:38;93668.03;;;7.05;71.17
10079;BME280;5078;42.544;22.966;2024-02-23T03:41:06;93666.47;;;6.94;71.67
10079;BME280;5078;42.544;22.966;2024-02-23T03:43:33;93667.75;;;6.92;71.45
10079;BME280;5078;42.544;22.966;2024-02-23T03:46:00;93662.84;;;6.85;72.09
10079;BME280;5078;42.544;22.966;2024-02-23T03:48:26;93667.50;;;6.83;72.02
10079;BME280;5078;42.544;22.966;2024-02-23T03:50:53;93666.97;;;6.76;71.95
10079;BME280;5078;42.544;22.966;2024-02-23T03:53:20;93670.03;;;6.73;72.35
10079;BME280;5078;42.544;22.966;2024-02-23T03:55:47;93670.56;;;6.70;72.13
10079;BME280;5078;42.544;22.966;2024-02-23T03:58:15;93668.25;;;6.68;71.63
10079;BME280;5078;42.544;22.966;2024-02-23T04:00:43;93671.31;;;6.65;72.67
10079;BME280;5078;42.544;22.966;2024-02-23T04:03:09;93637.81;;;6.40;72.61
10079;BME280;5078;42.544;22.966;2024-02-23T04:05:36;93680.63;;;6.61;73.26
10079;BME280;5078;42.544;22.966;2024-02-23T04:08:03;93669.28;;;6.62;73.01
10079;BME280;5078;42.544;22.966;2024-02-23T04:10:30;93670.56;;;6.80;72.99
10079;BME280;5078;42.544;22.966;2024-02-23T04:12:57;93665.16;;;6.92;72.78
10079;BME280;5078;42.544;22.966;2024-02-23T04:15:25;93661.56;;;6.98;71.76
10079;BME280;5078;42.544;22.966;2024-02-23T04:17:52;93664.91;;;7.03;70.26
10079;BME280;5078;42.544;22.966;2024-02-23T04:20:19;93662.59;;;7.02;70.50
10079;BME280;5078;42.544;22.966;2024-02-23T04:22:45;93651.53;;;6.86;70.35
10079;BME280;5078;42.544;22.966;2024-02-23T04:25:12;93655.38;;;6.99;70.28
10079;BME280;5078;42.544;22.966;2024-02-23T04:27:39;93653.06;;;7.07;70.10
10079;BME280;5078;42.544;22.966;2024-02-23T04:30:06;93662.59;;;7.12;70.50
10079;BME280;5078;42.544;22.966;2024-02-23T04:32:34;93661.31;;;7.19;69.69
10079;BME280;5078;42.544;22.966;2024-02-23T04:35:01;93661.84;;;7.01;70.00
10079;BME280;5078;42.544;22.966;2024-02-23T04:37:28;93665.97;;;6.87;70.46
10079;BME280;5078;42.544;22.966;2024-02-23T04:39:54;93664.94;;;6.83;70.82
10079;BME280;5078;42.544;22.966;2024-02-23T04:42:21;93668.28;;;6.94;70.76
10079;BME280;5078;42.544;22.966;2024-02-23T04:44:48;93667.50;;;6.98;70.53
10079;BME280;5078;42.544;22.966;2024-02-23T04:47:15;93665.69;;;7.04;69.85
10079;BME280;5078;42.544;22.966;2024-02-23T04:49:43;93673.94;;;6.96;69.69
10079;BME280;5078;42.544;22.966;2024-02-23T04:52:10;93669.28;;;6.93;70.18
10079;BME280;5078;42.544;22.966;2024-02-23T04:54:36;93663.63;;;6.91;70.30
10079;BME280;5078;42.544;22.966;2024-02-23T04:57:03;93672.38;;;6.69;69.85
10079;BME280;5078;42.544;22.966;2024-02-23T04:59:29;93682.91;;;6.53;70.42
10079;BME280;5078;42.544;22.966;2024-02-23T05:01:57;93677.47;;;6.44;70.76
10079;BME280;5078;42.544;22.966;2024-02-23T05:04:24;93684.91;;;6.30;72.22
10079;BME280;5078;42.544;22.966;2024-02-23T05:06:53;93682.06;;;6.17;72.20
10079;BME280;5078;42.544;22.966;2024-02-23T05:09:20;93677.84;;;5.96;72.92
10079;BME280;5078;42.544;22.966;2024-02-23T05:11:47;93684.50;;;5.86;74.16
10079;BME280;5078;42.544;22.966;2024-02-23T05:14:13;93684.44;;;5.81;73.98
10079;BME280;5078;42.544;22.966;2024-02-23T05:16:40;93684.69;;;5.75;74.89
10079;BME280;5078;42.544;22.966;2024-02-23T05:19:07;93687.53;;;5.78;74.80
10079;BME280;5078;42.544;22.966;2024-02-23T05:21:34;93687.84;;;5.87;74.90
10079;BME280;5078;42.544;22.966;2024-02-23T05:24:02;93692.22;;;5.86;74.78
10079;BME280;5078;42.544;22.966;2024-02-23T05:26:31;93695.09;;;6.00;74.21
10079;BME280;5078;42.544;22.966;2024-02-23T05:28:57;93688.44;;;6.04;73.57
10079;BME280;5078;42.544;22.966;2024-02-23T05:31:44;93689.97;;;6.00;74.25
10079;BME280;5078;42.544;22.966;2024-02-23T05:34:12;93689.66;;;5.86;74.94
10079;BME280;5078;42.544;22.966;2024-02-23T05:36:39;93691.75;;;5.95;74.89
10079;BME280;5078;42.544;22.966;2024-02-23T05:39:07;93693.03;;;5.97;75.24
10079;BME280;5078;42.544;22.966;2024-02-23T05:41:35;93695.16;;;6.15;74.16
10079;BME280;5078;42.544;22.966;2024-02-23T05:44:03;93695.47;;;6.24;74.19
10079;BME280;5078;42.544;22.966;2024-02-23T05:46:31;93694.41;;;6.25;73.47
10079;BME280;5078;42.544;22.966;2024-02-23T05:48:58;93697.75;;;6.25;73.44
10079;BME280;5078;42.544;22.966;2024-02-23T05:51:24;93691.56;;;6.21;73.33
10079;BME280;5078;42.544;22.966;2024-02-23T05:53:51;93688.78;;;6.33;73.17
10079;BME280;5078;42.544;22.966;2024-02-23T05:56:19;93693.47;;;6.51;73.74
10079;BME280;5078;42.544;22.966;2024-02-23T05:58:46;93698.34;;;6.58;73.17
10079;BME280;5078;42.544;22.966;2024-02-23T06:01:12;93698.41;;;6.83;71.54
10079;BME280;5078;42.544;22.966;2024-02-23T06:03:39;93691.72;;;6.97;71.14
10079;BME280;5078;42.544;22.966;2024-02-23T06:06:06;93701.50;;;7.15;71.23
10079;BME280;5078;42.544;22.966;2024-02-23T06:08:33;93703.81;;;7.37;70.88
10079;BME280;5078;42.544;22.966;2024-02-23T06:11:00;93702.75;;;7.58;69.48
10079;BME280;5078;42.544;22.966;2024-02-23T06:13:30;93707.88;;;7.73;69.41
10079;BME280;5078;42.544;22.966;2024-02-23T06:15:57;93699.63;;;7.87;68.24
10079;BME280;5078;42.544;22.966;2024-02-23T06:18:23;93709.53;;;8.28;67.47
10079;BME280;5078;42.544;22.966;2024-02-23T06:20:50;93710.25;;;8.49;66.93
10079;BME280;5078;42.544;22.966;2024-02-23T06:23:17;93689.06;;;8.47;66.27
10079;BME280;5078;42.544;22.966;2024-02-23T06:25:44;93711.50;;;8.96;66.39
10079;BME280;5078;42.544;22.966;2024-02-23T06:28:10;93712.88;;;9.22;62.94
10079;BME280;5078;42.544;22.966;2024-02-23T06:30:38;93709.50;;;9.21;62.02
10079;BME280;5078;42.544;22.966;2024-02-23T06:33:05;93698.78;;;9.38;62.53
10079;BME280;5078;42.544;22.966;2024-02-23T06:35:32;93711.53;;;9.58;62.26
10079;BME280;5078;42.544;22.966;2024-02-23T06:37:59;93703.78;;;9.82;60.80
10079;BME280;5078;42.544;22.966;2024-02-23T06:40:25;93712.41;;;10.01;59.05
10079;BME280;5078;42.544;22.966;2024-02-23T06:42:52;93710.16;;;10.18;60.22
10079;BME280;5078;42.544;22.966;2024-02-23T06:45:18;93713.44;;;10.48;58.84
10079;BME280;5078;42.544;22.966;2024-02-23T06:47:52;93720.59;;;10.74;57.63
10079;BME280;5078;42.544;22.966;2024-02-23T06:50:19;93725.28;;;10.72;57.60
10079;BME280;5078;42.544;22.966;2024-02-23T06:52:46;93713.94;;;11.06;56.89
10079;BME280;5078;42.544;22.966;2024-02-23T06:55:14;93704.38;;;11.20;56.18
10079;BME280;5078;42.544;22.966;2024-02-23T06:57:42;93704.19;;;11.49;55.09
10079;BME280;5078;42.544;22.966;2024-02-23T07:00:09;93700.66;;;11.58;54.75
10079;BME280;5078;42.544;22.966;2024-02-23T07:02:37;93696.41;;;11.49;54.98
10079;BME280;5078;42.544;22.966;2024-02-23T07:05:05;93706.66;;;11.86;54.14
10079;BME280;5078;42.544;22.966;2024-02-23T07:07:32;93695.25;;;12.14;52.95
10079;BME280;5078;42.544;22.966;2024-02-23T07:09:59;93705.94;;;11.86;54.01
10079;BME280;5078;42.544;22.966;2024-02-23T07:12:26;93695.81;;;12.39;52.90
10079;BME280;5078;42.544;22.966;2024-02-23T07:14:54;93690.69;;;12.61;52.30
10079;BME280;5078;42.544;22.966;2024-02-23T07:17:21;93675.63;;;13.07;50.48
10079;BME280;5078;42.544;22.966;2024-02-23T07:19:47;93699.00;;;12.85;50.86
10079;BME280;5078;42.544;22.966;2024-02-23T07:22:17;93709.34;;;13.12;49.52
10079;BME280;5078;42.544;22.966;2024-02-23T07:24:44;93704.75;;;13.09;49.70
10079;BME280;5078;42.544;22.966;2024-02-23T07:27:10;93695.50;;;13.03;50.24
10079;BME280;5078;42.544;22.966;2024-02-23T07:29:37;93693.81;;;12.85;51.15
10079;BME280;5078;42.544;22.966;2024-02-23T07:32:04;93694.78;;;12.76;50.45
10079;BME280;5078;42.544;22.966;2024-02-23T07:34:31;93700.13;;;12.57;51.42
10079;BME280;5078;42.544;22.966;2024-02-23T07:36:58;93695.50;;;12.54;51.48
10079;BME280;5078;42.544;22.966;2024-02-23T07:39:26;93702.44;;;12.58;50.44
10079;BME280;5078;42.544;22.966;2024-02-23T07:41:52;93695.56;;;12.27;51.86
10079;BME280;5078;42.544;22.966;2024-02-23T07:44:19;93704.28;;;12.17;51.95
10079;BME280;5078;42.544;22.966;2024-02-23T07:46:46;93691.56;;;12.43;52.39
10079;BME280;5078;42.544;22.966;2024-02-23T07:49:12;93699.38;;;12.43;50.93
10079;BME280;5078;42.544;22.966;2024-02-23T07:51:39;93696.88;;;12.51;51.44
10079;BME280;5078;42.544;22.966;2024-02-23T07:54:06;93700.72;;;12.54;51.17
10079;BME280;5078;42.544;22.966;2024-02-23T07:56:34;93694.94;;;12.43;51.42
10079;BME280;5078;42.544;22.966;2024-02-23T07:59:00;93687.84;;;12.85;50.45
10079;BME280;5078;42.544;22.966;2024-02-23T08:01:28;93691.03;;;13.40;49.48
10079;BME280;5078;42.544;22.966;2024-02-23T08:03:55;93667.31;;;13.41;48.65
10079;BME280;5078;42.544;22.966;2024-02-23T08:06:22;93685.25;;;13.82;47.87
10079;BME280;5078;42.544;22.966;2024-02-23T08:08:49;93697.25;;;13.52;48.02
10079;BME280;5078;42.544;22.966;2024-02-23T08:11:16;93694.75;;;13.47;48.63
10079;BME280;5078;42.544;22.966;2024-02-23T08:13:44;93694.06;;;13.64;47.56
10079;BME280;5078;42.544;22.966;2024-02-23T08:16:10;93696.97;;;13.62;47.82
10079;BME280;5078;42.544;22.966;2024-02-23T08:18:37;93693.03;;;14.04;46.47
10079;BME280;5078;42.544;22.966;2024-02-23T08:21:04;93699.88;;;13.61;47.75
10079;BME280;5078;42.544;22.966;2024-02-23T08:23:31;93690.03;;;13.80;47.42
10079;BME280;5078;42.544;22.966;2024-02-23T08:25:58;93697.56;;;14.21;45.65
10079;BME280;5078;42.544;22.966;2024-02-23T08:28:25;93692.03;;;14.23;45.37
10079;BME280;5078;42.544;22.966;2024-02-23T08:30:53;93698.28;;;14.13;45.94
10079;BME280;5078;42.544;22.966;2024-02-23T08:33:20;93707.31;;;14.07;45.29
10079;BME280;5078;42.544;22.966;2024-02-23T08:35:47;93701.22;;;14.11;46.44
10079;BME280;5078;42.544;22.966;2024-02-23T08:38:14;93701.22;;;14.59;45.64
10079;BME280;5078;42.544;22.966;2024-02-23T08:40:41;93687.66;;;14.49;44.81
10079;BME280;5078;42.544;22.966;2024-02-23T08:43:08;93680.78;;;14.44;44.95
10079;BME280;5078;42.544;22.966;2024-02-23T08:45:34;93674.78;;;14.44;45.50
10079;BME280;5078;42.544;22.966;2024-02-23T08:48:03;93691.28;;;14.31;45.23
10079;BME280;5078;42.544;22.966;2024-02-23T08:50:30;93696.19;;;13.84;45.88
10079;BME280;5078;42.544;22.966;2024-02-23T08:52:56;93693.09;;;13.51;47.18
10079;BME280;5078;42.544;22.966;2024-02-23T08:55:23;93681.72;;;13.47;47.28
10079;BME280;5078;42.544;22.966;2024-02-23T08:57:50;93686.91;;;13.03;49.11
10079;BME280;5078;42.544;22.966;2024-02-23T09:00:17;93690.06;;;13.36;48.67
10079;BME280;5078;42.544;22.966;2024-02-23T09:02:44;93678.16;;;13.65;47.92
10079;BME280;5078;42.544;22.966;2024-02-23T09:05:12;93690.41;;;14.04;46.59
10079;BME280;5078;42.544;22.966;2024-02-23T09:07:39;93695.22;;;14.11;45.83
10079;BME280;5078;42.544;22.966;2024-02-23T09:10:06;93691.50;;;14.03;46.53
10079;BME280;5078;42.544;22.966;2024-02-23T09:12:32;93697.94;;;14.45;45.24
10079;BME280;5078;42.544;22.966;2024-02-23T09:14:59;93681.72;;;14.48;44.68
10079;BME280;5078;42.544;22.966;2024-02-23T09:17:26;93675.63;;;14.22;45.41
10079;BME280;5078;42.544;22.966;2024-02-23T09:19:52;93696.75;;;14.51;45.59
10079;BME280;5078;42.544;22.966;2024-02-23T09:22:20;93701.16;;;14.42;45.96
10079;BME280;5078;42.544;22.966;2024-02-23T09:24:48;93684.31;;;14.09;46.02
10079;BME280;5078;42.544;22.966;2024-02-23T09:27:14;93689.88;;;14.25;45.69
10079;BME280;5078;42.544;22.966;2024-02-23T09:29:41;93693.78;;;14.36;45.45
10079;BME280;5078;42.544;22.966;2024-02-23T09:32:08;93691.09;;;14.19;45.59
10079;BME280;5078;42.544;22.966;2024-02-23T09:34:35;93670.03;;;14.37;46.05
10079;BME280;5078;42.544;22.966;2024-02-23T09:37:01;93691.69;;;14.15;45.41
10079;BME280;5078;42.544;22.966;2024-02-23T09:39:29;93682.19;;;14.20;46.10
10079;BME280;5078;42.544;22.966;2024-02-23T09:41:56;93676.50;;;14.66;45.16
10079;BME280;5078;42.544;22.966;2024-02-23T09:44:23;93683.72;;;14.86;43.39
10079;BME280;5078;42.544;22.966;2024-02-23T09:46:50;93671.44;;;14.69;44.17
10079;BME280;5078;42.544;22.966;2024-02-23T09:49:16;93683.75;;;14.94;42.88
10079;BME280;5078;42.544;22.966;2024-02-23T09:51:43;93670.06;;;14.72;44.50
10079;BME280;5078;42.544;22.966;2024-02-23T09:54:10;93679.91;;;14.83;42.96
10079;BME280;5078;42.544;22.966;2024-02-23T09:56:39;93634.91;;;15.12;42.67
10079;BME280;5078;42.544;22.966;2024-02-23T09:59:06;93673.75;;;15.31;42.76
10079;BME280;5078;42.544;22.966;2024-02-23T10:01:33;93651.97;;;15.18;42.21
10079;BME280;5078;42.544;22.966;2024-02-23T10:04:01;93664.22;;;15.26;43.11
10079;BME280;5078;42.544;22.966;2024-02-23T10:06:29;93674.97;;;15.16;42.73
10079;BME280;5078;42.544;22.966;2024-02-23T10:08:56;93664.81;;;15.49;42.23
10079;BME280;5078;42.544;22.966;2024-02-23T10:11:24;93659.56;;;15.66;41.80
10079;BME280;5078;42.544;22.966;2024-02-23T10:13:52;93648.88;;;15.25;42.47
10079;BME280;5078;42.544;22.966;2024-02-23T10:16:19;93668.84;;;15.12;43.00
10079;BME280;5078;42.544;22.966;2024-02-23T10:18:46;93647.34;;;15.06;43.00
10079;BME280;5078;42.544;22.966;2024-02-23T10:21:13;93639.38;;;15.03;43.58
10079;BME280;5078;42.544;22.966;2024-02-23T10:23:40;93644.44;;;14.99;42.89
10079;BME280;5078;42.544;22.966;2024-02-23T10:26:08;93647.31;;;15.32;42.66
10079;BME280;5078;42.544;22.966;2024-02-23T10:28:34;93647.66;;;15.14;41.79
10079;BME280;5078;42.544;22.966;2024-02-23T10:31:03;93643.78;;;15.20;42.00
10079;BME280;5078;42.544;22.966;2024-02-23T10:33:31;93634.31;;;15.06;42.78
10079;BME280;5078;42.544;22.966;2024-02-23T10:35:58;93645.38;;;14.78;43.52
10079;BME280;5078;42.544;22.966;2024-02-23T10:38:27;93636.59;;;14.56;43.44
10079;BME280;5078;42.544;22.966;2024-02-23T10:40:55;93610.50;;;14.39;43.12
10079;BME280;5078;42.544;22.966;2024-02-23T10:43:29;93627.09;;;14.95;42.29
10079;BME280;5078;42.544;22.966;2024-02-23T10:45:57;93614.16;;;15.16;40.96
10079;BME280;5078;42.544;22.966;2024-02-23T10:48:29;93621.22;;;15.24;40.00
10079;BME280;5078;42.544;22.966;2024-02-23T10:50:56;93622.84;;;15.45;40.05
10079;BME280;5078;42.544;22.966;2024-02-23T10:53:24;93612.59;;;15.40;40.17
10079;BME280;5078;42.544;22.966;2024-02-23T10:55:52;93611.94;;;15.61;39.10
10079;BME280;5078;42.544;22.966;2024-02-23T10:58:22;93606.97;;;15.68;39.47
10079;BME280;5078;42.544;22.966;2024-02-23T11:00:49;93602.03;;;15.75;40.15
10079;BME280;5078;42.544;22.966;2024-02-23T11:03:16;93603.81;;;15.91;40.64
10079;BME280;5078;42.544;22.966;2024-02-23T11:05:48;93601.66;;;15.93;39.84
10079;BME280;5078;42.544;22.966;2024-02-23T11:08:17;93606.13;;;15.55;40.44
10079;BME280;5078;42.544;22.966;2024-02-23T11:10:49;93623.50;;;15.51;41.11
10079;BME280;5078;42.544;22.966;2024-02-23T11:13:16;93592.00;;;15.39;40.74
10079;BME280;5078;42.544;22.966;2024-02-23T11:15:43;93595.63;;;15.64;40.21
10079;BME280;5078;42.544;22.966;2024-02-23T11:18:21;93598.28;;;15.55;40.26
10079;BME280;5078;42.544;22.966;2024-02-23T11:20:55;93590.13;;;15.48;39.76
10079;BME280;5078;42.544;22.966;2024-02-23T11:23:22;93593.47;;;15.66;39.99
10079;BME280;5078;42.544;22.966;2024-02-23T11:26:07;93582.69;;;15.67;39.14
10079;BME280;5078;42.544;22.966;2024-02-23T11:28:42;93592.44;;;15.58;39.23
10079;BME280;5078;42.544;22.966;2024-02-23T11:31:12;93561.41;;;15.48;39.18
10079;BME280;5078;42.544;22.966;2024-02-23T11:33:38;93559.88;;;15.55;39.56
10079;BME280;5078;42.544;22.966;2024-02-23T11:36:08;93564.88;;;15.98;39.14
10079;BME280;5078;42.544;22.966;2024-02-23T11:38:35;93566.06;;;15.80;38.25
10079;BME280;5078;42.544;22.966;2024-02-23T11:41:02;93572.47;;;15.83;38.49
10079;BME280;5078;42.544;22.966;2024-02-23T11:43:29;93572.94;;;16.14;37.92
10079;BME280;5078;42.544;22.966;2024-02-23T11:45:56;93550.88;;;15.74;37.29
10079;BME280;5078;42.544;22.966;2024-02-23T11:48:23;93560.41;;;15.99;38.25
10079;BME280;5078;42.544;22.966;2024-02-23T11:50:50;93569.69;;;15.88;37.06
10079;BME280;5078;42.544;22.966;2024-02-23T11:53:18;93559.38;;;15.91;35.56
10079;BME280;5078;42.544;22.966;2024-02-23T11:55:47;93562.13;;;15.66;36.53
10079;BME280;5078;42.544;22.966;2024-02-23T11:58:15;93558.97;;;15.81;36.08
10079;BME280;5078;42.544;22.966;2024-02-23T12:00:42;93554.53;;;15.81;36.36
10079;BME280;5078;42.544;22.966;2024-02-23T12:03:08;93549.72;;;15.83;35.85
10079;BME280;5078;42.544;22.966;2024-02-23T12:05:35;93531.88;;;15.56;36.34
10079;BME280;5078;42.544;22.966;2024-02-23T12:08:03;93551.91;;;15.81;35.75
10079;BME280;5078;42.544;22.966;2024-02-23T12:10:31;93551.28;;;15.84;36.00
10079;BME280;5078;42.544;22.966;2024-02-23T12:12:58;93551.06;;;15.60;35.43
10079;BME280;5078;42.544;22.966;2024-02-23T12:15:25;93547.28;;;15.78;35.11
10079;BME280;5078;42.544;22.966;2024-02-23T12:17:53;93556.91;;;15.57;35.36
10079;BME280;5078;42.544;22.966;2024-02-23T12:20:21;93536.09;;;15.78;35.61
10079;BME280;5078;42.544;22.966;2024-02-23T12:22:48;93523.50;;;15.71;35.94
10079;BME280;5078;42.544;22.966;2024-02-23T12:25:15;93538.63;;;15.48;36.73
10079;BME280;5078;42.544;22.966;2024-02-23T12:27:43;93548.84;;;15.71;35.25
10079;BME280;5078;42.544;22.966;2024-02-23T12:30:13;93538.03;;;15.43;35.64
10079;BME280;5078;42.544;22.966;2024-02-23T12:32:40;93544.78;;;15.52;35.31
10079;BME280;5078;42.544;22.966;2024-02-23T12:35:07;93551.88;;;15.52;35.37
10079;BME280;5078;42.544;22.966;2024-02-23T12:37:36;93549.94;;;15.23;35.43
10079;BME280;5078;42.544;22.966;2024-02-23T12:40:05;93537.03;;;15.27;35.73
10079;BME280;5078;42.544;22.966;2024-02-23T12:42:32;93539.25;;;15.07;35.34
10079;BME280;5078;42.544;22.966;2024-02-23T12:45:00;93543.94;;;15.23;35.49
10079;BME280;5078;42.544;22.966;2024-02-23T12:47:27;93540.75;;;15.17;35.68
10079;BME280;5078;42.544;22.966;2024-02-23T12:49:53;93531.50;;;15.28;35.72
10079;BME280;5078;42.544;22.966;2024-02-23T12:52:20;93525.06;;;15.26;35.24
10079;BME280;5078;42.544;22.966;2024-02-23T12:54:47;93520.78;;;15.21;35.90
10079;BME280;5078;42.544;22.966;2024-02-23T12:57:13;93529.66;;;15.29;35.67
10079;BME280;5078;42.544;22.966;2024-02-23T12:59:40;93522.88;;;15.36;35.54
10079;BME280;5078;42.544;22.966;2024-02-23T13:02:11;93528.75;;;15.25;36.30
10079;BME280;5078;42.544;22.966;2024-02-23T13:04:38;93519.09;;;15.17;35.23